LYBE/BEG METAR and TAF weather

Enter ICAO airport designator
Station Type Date Time Source
LYBE METAR 2021/06/24 06:00 UTC NOAA

LYBE 240600Z VRB01KT CAVOK 29/20 Q1015 NOSIG


Station Type Date Time Source
LYBE Decoded METAR 2021/06/24 06:00 UTC NOAA

Beograd / Surcin, Serbia and Montenegro (LYBE) 44-49N 020-17E 99M
Jun 24, 2021 - 02:00 AM EDT / 2021.06.24 0600 UTC
Wind: Variable at 1 MPH (1 KT):0
Visibility: greater than 7 mile(s):0
Temperature: 84 F (29 C)
Dew Point: 68 F (20 C)
Relative Humidity: 58%
Pressure (altimeter): 29.97 in. Hg (1015 hPa)
ob: LYBE 240600Z VRB01KT CAVOK 29/20 Q1015 NOSIG
cycle: 6

Station Type Date Time Source
LYBE TAF 2021/06/24 06:21 UTC NOAA

TAF LYBE 240500Z 2406/2506 13008KT CAVOK TX39/2413Z TN22/2503Z

Example: see airport list